sensor_id;sensor_type;location;lat;lon;timestamp;temperature;humidity
25877;DHT22;13692;47.480;19.216;2023-07-13T00:01:54;24.90;99.90
25877;DHT22;13692;47.480;19.216;2023-07-13T00:04:23;25.00;99.90
25877;DHT22;13692;47.480;19.216;2023-07-13T00:06:54;25.10;99.90
25877;DHT22;13692;47.480;19.216;2023-07-13T00:09:21;25.20;99.90
25877;DHT22;13692;47.480;19.216;2023-07-13T00:11:55;25.30;99.90
25877;DHT22;13692;47.480;19.216;2023-07-13T00:14:24;25.30;99.90
25877;DHT22;13692;47.480;19.216;2023-07-13T00:16:51;25.30;99.90
25877;DHT22;13692;47.480;19.216;2023-07-13T00:19:19;25.30;99.90
25877;DHT22;13692;47.480;19.216;2023-07-13T00:21:46;25.30;99.90
25877;DHT22;13692;47.480;19.216;2023-07-13T00:24:15;25.30;99.90
25877;DHT22;13692;47.480;19.216;2023-07-13T00:26:45;25.20;99.90
25877;DHT22;13692;47.480;19.216;2023-07-13T00:29:13;25.10;99.90
25877;DHT22;13692;47.480;19.216;2023-07-13T00:31:40;25.10;99.90
25877;DHT22;13692;47.480;19.216;2023-07-13T00:34:08;25.00;99.90
25877;DHT22;13692;47.480;19.216;2023-07-13T00:36:35;25.00;99.90
25877;DHT22;13692;47.480;19.216;2023-07-13T00:39:03;24.80;99.90
25877;DHT22;13692;47.480;19.216;2023-07-13T00:41:31;24.80;99.90
25877;DHT22;13692;47.480;19.216;2023-07-13T00:43:58;24.70;99.90
25877;DHT22;13692;47.480;19.216;2023-07-13T00:46:28;24.60;99.90
25877;DHT22;13692;47.480;19.216;2023-07-13T00:49:00;24.50;99.90
25877;DHT22;13692;47.480;19.216;2023-07-13T00:51:36;24.40;99.90
25877;DHT22;13692;47.480;19.216;2023-07-13T00:54:08;24.30;99.90
25877;DHT22;13692;47.480;19.216;2023-07-13T00:56:37;24.20;99.90
25877;DHT22;13692;47.480;19.216;2023-07-13T00:59:06;24.20;99.90
25877;DHT22;13692;47.480;19.216;2023-07-13T01:01:33;24.20;99.90
25877;DHT22;13692;47.480;19.216;2023-07-13T01:04:00;24.10;99.90
25877;DHT22;13692;47.480;19.216;2023-07-13T01:06:27;24.10;99.90
25877;DHT22;13692;47.480;19.216;2023-07-13T01:08:56;24.00;99.90
25877;DHT22;13692;47.480;19.216;2023-07-13T01:11:24;24.00;99.90
25877;DHT22;13692;47.480;19.216;2023-07-13T01:13:51;24.00;99.90
25877;DHT22;13692;47.480;19.216;2023-07-13T01:16:26;24.00;99.90
25877;DHT22;13692;47.480;19.216;2023-07-13T01:18:54;24.00;99.90
25877;DHT22;13692;47.480;19.216;2023-07-13T01:21:25;24.00;99.90
25877;DHT22;13692;47.480;19.216;2023-07-13T01:23:53;23.90;99.90
25877;DHT22;13692;47.480;19.216;2023-07-13T01:26:20;23.90;99.90
25877;DHT22;13692;47.480;19.216;2023-07-13T01:28:47;23.90;99.90
25877;DHT22;13692;47.480;19.216;2023-07-13T01:31:14;23.90;99.90
25877;DHT22;13692;47.480;19.216;2023-07-13T01:33:41;23.80;99.90
25877;DHT22;13692;47.480;19.216;2023-07-13T01:36:10;23.80;99.90
25877;DHT22;13692;47.480;19.216;2023-07-13T01:38:37;23.80;99.90
25877;DHT22;13692;47.480;19.216;2023-07-13T01:41:04;23.90;99.90
25877;DHT22;13692;47.480;19.216;2023-07-13T01:43:31;23.80;99.90
25877;DHT22;13692;47.480;19.216;2023-07-13T01:45:59;23.80;99.90
25877;DHT22;13692;47.480;19.216;2023-07-13T01:48:46;23.80;99.90
25877;DHT22;13692;47.480;19.216;2023-07-13T01:51:13;23.80;99.90
25877;DHT22;13692;47.480;19.216;2023-07-13T01:53:40;23.70;99.90
25877;DHT22;13692;47.480;19.216;2023-07-13T01:56:07;23.70;99.90
25877;DHT22;13692;47.480;19.216;2023-07-13T01:58:35;23.70;99.90
25877;DHT22;13692;47.480;19.216;2023-07-13T02:01:02;23.60;99.90
25877;DHT22;13692;47.480;19.216;2023-07-13T02:03:29;23.60;99.90
25877;DHT22;13692;47.480;19.216;2023-07-13T02:05:56;23.60;99.90
25877;DHT22;13692;47.480;19.216;2023-07-13T02:08:23;23.60;99.90
25877;DHT22;13692;47.480;19.216;2023-07-13T02:10:50;23.60;99.90
25877;DHT22;13692;47.480;19.216;2023-07-13T02:13:17;23.50;99.90
25877;DHT22;13692;47.480;19.216;2023-07-13T02:15:44;23.50;99.90
25877;DHT22;13692;47.480;19.216;2023-07-13T02:18:11;23.30;99.90
25877;DHT22;13692;47.480;19.216;2023-07-13T02:20:39;23.40;99.90
25877;DHT22;13692;47.480;19.216;2023-07-13T02:23:06;23.40;99.90
25877;DHT22;13692;47.480;19.216;2023-07-13T02:25:35;23.40;99.90
25877;DHT22;13692;47.480;19.216;2023-07-13T02:28:02;23.40;99.90
25877;DHT22;13692;47.480;19.216;2023-07-13T02:30:30;23.30;99.90
25877;DHT22;13692;47.480;19.216;2023-07-13T02:32:57;23.10;99.90
25877;DHT22;13692;47.480;19.216;2023-07-13T02:35:24;23.00;99.90
25877;DHT22;13692;47.480;19.216;2023-07-13T02:37:52;23.00;99.90
25877;DHT22;13692;47.480;19.216;2023-07-13T02:40:19;23.10;99.90
25877;DHT22;13692;47.480;19.216;2023-07-13T02:42:46;23.00;99.90
25877;DHT22;13692;47.480;19.216;2023-07-13T02:45:13;23.00;99.90
25877;DHT22;13692;47.480;19.216;2023-07-13T02:47:41;23.10;99.90
25877;DHT22;13692;47.480;19.216;2023-07-13T02:50:09;23.10;99.90
25877;DHT22;13692;47.480;19.216;2023-07-13T02:52:36;23.10;99.90
25877;DHT22;13692;47.480;19.216;2023-07-13T02:55:03;23.00;99.90
25877;DHT22;13692;47.480;19.216;2023-07-13T02:57:30;23.00;99.90
25877;DHT22;13692;47.480;19.216;2023-07-13T03:00:00;23.00;99.90
25877;DHT22;13692;47.480;19.216;2023-07-13T03:02:27;23.00;99.90
25877;DHT22;13692;47.480;19.216;2023-07-13T03:04:55;23.00;99.90
25877;DHT22;13692;47.480;19.216;2023-07-13T03:07:23;22.90;99.90
25877;DHT22;13692;47.480;19.216;2023-07-13T03:09:54;22.90;99.90
25877;DHT22;13692;47.480;19.216;2023-07-13T03:12:22;22.90;99.90
25877;DHT22;13692;47.480;19.216;2023-07-13T03:14:49;22.80;99.90
25877;DHT22;13692;47.480;19.216;2023-07-13T03:17:16;22.90;99.90
25877;DHT22;13692;47.480;19.216;2023-07-13T03:19:44;23.00;99.90
25877;DHT22;13692;47.480;19.216;2023-07-13T03:22:11;23.00;99.90
25877;DHT22;13692;47.480;19.216;2023-07-13T03:24:38;23.00;99.90
25877;DHT22;13692;47.480;19.216;2023-07-13T03:27:13;23.00;99.90
25877;DHT22;13692;47.480;19.216;2023-07-13T03:29:40;23.00;99.90
25877;DHT22;13692;47.480;19.216;2023-07-13T03:32:07;23.00;99.90
25877;DHT22;13692;47.480;19.216;2023-07-13T03:34:37;23.20;99.90
25877;DHT22;13692;47.480;19.216;2023-07-13T03:37:04;23.30;99.90
25877;DHT22;13692;47.480;19.216;2023-07-13T03:39:34;23.40;99.90
25877;DHT22;13692;47.480;19.216;2023-07-13T03:42:01;23.50;99.90
25877;DHT22;13692;47.480;19.216;2023-07-13T03:44:31;23.40;99.90
25877;DHT22;13692;47.480;19.216;2023-07-13T03:46:58;23.40;99.90
25877;DHT22;13692;47.480;19.216;2023-07-13T03:49:25;23.50;99.90
25877;DHT22;13692;47.480;19.216;2023-07-13T03:51:52;23.70;99.90
25877;DHT22;13692;47.480;19.216;2023-07-13T03:54:20;23.80;99.90
25877;DHT22;13692;47.480;19.216;2023-07-13T03:56:47;23.90;99.90
25877;DHT22;13692;47.480;19.216;2023-07-13T03:59:14;23.90;99.90
25877;DHT22;13692;47.480;19.216;2023-07-13T04:01:40;23.90;99.90
25877;DHT22;13692;47.480;19.216;2023-07-13T04:04:07;23.90;99.90
25877;DHT22;13692;47.480;19.216;2023-07-13T04:06:35;23.90;99.90
25877;DHT22;13692;47.480;19.216;2023-07-13T04:09:03;23.90;99.90
25877;DHT22;13692;47.480;19.216;2023-07-13T04:11:33;24.00;99.90
25877;DHT22;13692;47.480;19.216;2023-07-13T04:14:00;24.00;99.90
25877;DHT22;13692;47.480;19.216;2023-07-13T04:16:28;24.00;99.90
25877;DHT22;13692;47.480;19.216;2023-07-13T04:18:55;24.00;99.90
25877;DHT22;13692;47.480;19.216;2023-07-13T04:21:28;24.10;99.90
25877;DHT22;13692;47.480;19.216;2023-07-13T04:23:55;24.10;99.90
25877;DHT22;13692;47.480;19.216;2023-07-13T04:26:23;24.00;99.90
25877;DHT22;13692;47.480;19.216;2023-07-13T04:28:50;24.00;99.90
25877;DHT22;13692;47.480;19.216;2023-07-13T04:31:18;23.90;99.90
25877;DHT22;13692;47.480;19.216;2023-07-13T04:33:45;23.90;99.90
25877;DHT22;13692;47.480;19.216;2023-07-13T04:36:15;23.90;99.90
25877;DHT22;13692;47.480;19.216;2023-07-13T04:38:43;23.80;99.90
25877;DHT22;13692;47.480;19.216;2023-07-13T04:41:10;23.80;99.90
25877;DHT22;13692;47.480;19.216;2023-07-13T04:43:37;23.80;99.90
25877;DHT22;13692;47.480;19.216;2023-07-13T04:46:09;23.80;99.90
25877;DHT22;13692;47.480;19.216;2023-07-13T04:48:38;23.80;99.90
25877;DHT22;13692;47.480;19.216;2023-07-13T04:51:05;23.80;99.90
25877;DHT22;13692;47.480;19.216;2023-07-13T04:53:33;23.80;99.90
25877;DHT22;13692;47.480;19.216;2023-07-13T04:56:02;23.80;99.90
25877;DHT22;13692;47.480;19.216;2023-07-13T04:58:29;23.80;99.90
25877;DHT22;13692;47.480;19.216;2023-07-13T05:01:01;23.80;99.90
25877;DHT22;13692;47.480;19.216;2023-07-13T05:03:29;23.80;99.90
25877;DHT22;13692;47.480;19.216;2023-07-13T05:06:02;23.80;99.90
25877;DHT22;13692;47.480;19.216;2023-07-13T05:08:29;23.70;99.90
25877;DHT22;13692;47.480;19.216;2023-07-13T05:10:56;23.60;99.90
25877;DHT22;13692;47.480;19.216;2023-07-13T05:13:25;23.60;99.90
25877;DHT22;13692;47.480;19.216;2023-07-13T05:16:00;23.50;99.90
25877;DHT22;13692;47.480;19.216;2023-07-13T05:18:28;23.40;99.90
25877;DHT22;13692;47.480;19.216;2023-07-13T05:21:06;23.40;99.90
25877;DHT22;13692;47.480;19.216;2023-07-13T05:23:35;23.50;99.90
25877;DHT22;13692;47.480;19.216;2023-07-13T05:26:03;23.60;99.90
25877;DHT22;13692;47.480;19.216;2023-07-13T05:28:35;23.80;99.90
25877;DHT22;13692;47.480;19.216;2023-07-13T05:31:03;23.90;99.90
25877;DHT22;13692;47.480;19.216;2023-07-13T05:33:30;23.90;99.90
25877;DHT22;13692;47.480;19.216;2023-07-13T05:35:57;23.80;99.90
25877;DHT22;13692;47.480;19.216;2023-07-13T05:38:24;23.70;99.90
25877;DHT22;13692;47.480;19.216;2023-07-13T05:40:51;23.60;99.90
25877;DHT22;13692;47.480;19.216;2023-07-13T05:43:18;23.50;99.90
25877;DHT22;13692;47.480;19.216;2023-07-13T05:45:45;23.30;99.90
25877;DHT22;13692;47.480;19.216;2023-07-13T05:48:12;23.30;99.90
25877;DHT22;13692;47.480;19.216;2023-07-13T05:50:39;23.20;99.90
25877;DHT22;13692;47.480;19.216;2023-07-13T05:53:06;23.20;99.90
25877;DHT22;13692;47.480;19.216;2023-07-13T05:55:33;23.10;99.90
25877;DHT22;13692;47.480;19.216;2023-07-13T05:58:01;23.00;99.90
25877;DHT22;13692;47.480;19.216;2023-07-13T06:00:28;22.80;99.90
25877;DHT22;13692;47.480;19.216;2023-07-13T06:02:56;22.80;99.90
25877;DHT22;13692;47.480;19.216;2023-07-13T06:05:23;22.70;99.90
25877;DHT22;13692;47.480;19.216;2023-07-13T06:07:50;22.40;99.90
25877;DHT22;13692;47.480;19.216;2023-07-13T06:10:17;22.40;99.90
25877;DHT22;13692;47.480;19.216;2023-07-13T06:12:44;22.40;99.90
25877;DHT22;13692;47.480;19.216;2023-07-13T06:15:11;22.70;99.90
25877;DHT22;13692;47.480;19.216;2023-07-13T06:17:38;22.90;99.90
25877;DHT22;13692;47.480;19.216;2023-07-13T06:20:06;22.80;99.90
25877;DHT22;13692;47.480;19.216;2023-07-13T06:22:33;22.60;99.90
25877;DHT22;13692;47.480;19.216;2023-07-13T06:25:01;21.90;99.90
25877;DHT22;13692;47.480;19.216;2023-07-13T06:27:28;22.00;99.90
25877;DHT22;13692;47.480;19.216;2023-07-13T06:29:56;21.90;99.90
25877;DHT22;13692;47.480;19.216;2023-07-13T06:32:23;21.80;99.90
25877;DHT22;13692;47.480;19.216;2023-07-13T06:34:50;22.20;99.90
25877;DHT22;13692;47.480;19.216;2023-07-13T06:37:18;22.20;99.90
25877;DHT22;13692;47.480;19.216;2023-07-13T06:39:45;22.20;99.90
25877;DHT22;13692;47.480;19.216;2023-07-13T06:42:13;21.90;99.90
25877;DHT22;13692;47.480;19.216;2023-07-13T06:44:40;22.00;99.90
25877;DHT22;13692;47.480;19.216;2023-07-13T06:47:07;22.10;99.90
25877;DHT22;13692;47.480;19.216;2023-07-13T06:49:34;22.10;99.90
25877;DHT22;13692;47.480;19.216;2023-07-13T06:52:01;22.30;99.90
25877;DHT22;13692;47.480;19.216;2023-07-13T06:54:28;22.20;99.90
25877;DHT22;13692;47.480;19.216;2023-07-13T06:56:55;22.00;99.90
25877;DHT22;13692;47.480;19.216;2023-07-13T06:59:22;22.20;99.90
25877;DHT22;13692;47.480;19.216;2023-07-13T07:01:49;22.50;99.90
25877;DHT22;13692;47.480;19.216;2023-07-13T07:04:16;22.70;99.90
25877;DHT22;13692;47.480;19.216;2023-07-13T07:06:43;22.90;99.90
25877;DHT22;13692;47.480;19.216;2023-07-13T07:09:10;23.10;99.90
25877;DHT22;13692;47.480;19.216;2023-07-13T07:11:37;23.20;99.90
25877;DHT22;13692;47.480;19.216;2023-07-13T07:14:15;23.40;99.90
25877;DHT22;13692;47.480;19.216;2023-07-13T07:16:43;23.90;99.90
25877;DHT22;13692;47.480;19.216;2023-07-13T07:19:09;24.50;99.90
25877;DHT22;13692;47.480;19.216;2023-07-13T07:21:36;25.10;99.90
25877;DHT22;13692;47.480;19.216;2023-07-13T07:24:04;25.60;99.90
25877;DHT22;13692;47.480;19.216;2023-07-13T07:26:32;26.20;99.90
25877;DHT22;13692;47.480;19.216;2023-07-13T07:29:10;26.50;99.90
25877;DHT22;13692;47.480;19.216;2023-07-13T07:31:40;26.80;99.90
25877;DHT22;13692;47.480;19.216;2023-07-13T07:34:09;27.00;99.90
25877;DHT22;13692;47.480;19.216;2023-07-13T07:36:36;27.10;99.90
25877;DHT22;13692;47.480;19.216;2023-07-13T07:39:06;27.20;99.90
25877;DHT22;13692;47.480;19.216;2023-07-13T07:41:33;27.20;99.90
25877;DHT22;13692;47.480;19.216;2023-07-13T07:44:04;27.60;99.90
25877;DHT22;13692;47.480;19.216;2023-07-13T07:46:31;28.00;99.90
25877;DHT22;13692;47.480;19.216;2023-07-13T07:48:58;28.30;99.90
25877;DHT22;13692;47.480;19.216;2023-07-13T07:51:25;28.50;99.90
25877;DHT22;13692;47.480;19.216;2023-07-13T07:53:52;28.70;99.90
25877;DHT22;13692;47.480;19.216;2023-07-13T07:56:19;28.90;99.90
25877;DHT22;13692;47.480;19.216;2023-07-13T07:58:49;28.90;99.90
25877;DHT22;13692;47.480;19.216;2023-07-13T08:01:19;29.20;99.90
25877;DHT22;13692;47.480;19.216;2023-07-13T08:03:48;29.00;99.90
25877;DHT22;13692;47.480;19.216;2023-07-13T08:06:18;28.90;99.90
25877;DHT22;13692;47.480;19.216;2023-07-13T08:08:50;29.10;99.90
25877;DHT22;13692;47.480;19.216;2023-07-13T08:11:17;29.50;99.90
25877;DHT22;13692;47.480;19.216;2023-07-13T08:13:46;29.70;99.90
25877;DHT22;13692;47.480;19.216;2023-07-13T08:16:13;30.00;99.90
25877;DHT22;13692;47.480;19.216;2023-07-13T08:18:40;30.20;99.90
25877;DHT22;13692;47.480;19.216;2023-07-13T08:21:08;30.30;99.90
25877;DHT22;13692;47.480;19.216;2023-07-13T08:23:36;30.40;99.90
25877;DHT22;13692;47.480;19.216;2023-07-13T08:26:03;30.60;99.90
25877;DHT22;13692;47.480;19.216;2023-07-13T08:28:33;30.60;99.90
25877;DHT22;13692;47.480;19.216;2023-07-13T08:31:05;30.50;99.90
25877;DHT22;13692;47.480;19.216;2023-07-13T08:33:33;30.00;99.90
25877;DHT22;13692;47.480;19.216;2023-07-13T08:36:01;29.90;99.90
25877;DHT22;13692;47.480;19.216;2023-07-13T08:38:28;30.10;99.90
25877;DHT22;13692;47.480;19.216;2023-07-13T08:40:56;30.10;99.90
25877;DHT22;13692;47.480;19.216;2023-07-13T08:43:29;30.40;99.90
25877;DHT22;13692;47.480;19.216;2023-07-13T08:46:04;30.60;99.90
25877;DHT22;13692;47.480;19.216;2023-07-13T08:48:38;30.70;99.90
25877;DHT22;13692;47.480;19.216;2023-07-13T08:53:55;31.00;99.90
25877;DHT22;13692;47.480;19.216;2023-07-13T08:56:27;30.60;99.90
25877;DHT22;13692;47.480;19.216;2023-07-13T08:59:01;30.40;99.90
25877;DHT22;13692;47.480;19.216;2023-07-13T09:04:20;30.60;99.90
25877;DHT22;13692;47.480;19.216;2023-07-13T09:06:55;30.40;99.90
25877;DHT22;13692;47.480;19.216;2023-07-13T09:09:32;30.30;99.90
25877;DHT22;13692;47.480;19.216;2023-07-13T09:12:14;30.40;99.90
25877;DHT22;13692;47.480;19.216;2023-07-13T09:14:55;30.60;99.90
25877;DHT22;13692;47.480;19.216;2023-07-13T09:17:36;30.90;99.90
25877;DHT22;13692;47.480;19.216;2023-07-13T09:20:29;30.80;99.90
25877;DHT22;13692;47.480;19.216;2023-07-13T09:22:59;30.90;99.90
25877;DHT22;13692;47.480;19.216;2023-07-13T09:25:34;31.00;99.90
25877;DHT22;13692;47.480;19.216;2023-07-13T09:28:34;31.40;99.90
25877;DHT22;13692;47.480;19.216;2023-07-13T09:31:20;31.80;99.90
25877;DHT22;13692;47.480;19.216;2023-07-13T09:33:50;32.00;99.90
25877;DHT22;13692;47.480;19.216;2023-07-13T09:36:21;32.20;99.90
25877;DHT22;13692;47.480;19.216;2023-07-13T09:38:58;32.30;99.90
25877;DHT22;13692;47.480;19.216;2023-07-13T09:44:14;32.00;99.90
25877;DHT22;13692;47.480;19.216;2023-07-13T09:46:47;31.60;99.90
25877;DHT22;13692;47.480;19.216;2023-07-13T09:49:22;31.40;99.90
25877;DHT22;13692;47.480;19.216;2023-07-13T09:51:58;31.50;99.90
25877;DHT22;13692;47.480;19.216;2023-07-13T09:54:27;31.30;99.90
25877;DHT22;13692;47.480;19.216;2023-07-13T09:56:55;31.20;99.90
25877;DHT22;13692;47.480;19.216;2023-07-13T09:59:26;31.40;99.90
25877;DHT22;13692;47.480;19.216;2023-07-13T10:01:53;31.50;99.90
25877;DHT22;13692;47.480;19.216;2023-07-13T10:04:33;31.70;99.90
25877;DHT22;13692;47.480;19.216;2023-07-13T10:07:08;31.50;99.90
25877;DHT22;13692;47.480;19.216;2023-07-13T10:09:56;31.10;99.90
25877;DHT22;13692;47.480;19.216;2023-07-13T10:12:24;30.90;99.90
25877;DHT22;13692;47.480;19.216;2023-07-13T10:14:56;30.70;99.90
25877;DHT22;13692;47.480;19.216;2023-07-13T10:17:44;30.60;99.90
25877;DHT22;13692;47.480;19.216;2023-07-13T10:20:12;30.50;99.90
25877;DHT22;13692;47.480;19.216;2023-07-13T10:26:19;30.20;99.90
25877;DHT22;13692;47.480;19.216;2023-07-13T10:28:52;30.00;99.90
25877;DHT22;13692;47.480;19.216;2023-07-13T10:31:22;29.90;99.90
25877;DHT22;13692;47.480;19.216;2023-07-13T10:33:50;30.00;99.90
25877;DHT22;13692;47.480;19.216;2023-07-13T10:36:31;30.10;99.90
25877;DHT22;13692;47.480;19.216;2023-07-13T10:39:02;30.00;99.90
25877;DHT22;13692;47.480;19.216;2023-07-13T10:41:36;30.00;99.90
25877;DHT22;13692;47.480;19.216;2023-07-13T10:44:18;30.20;99.90
25877;DHT22;13692;47.480;19.216;2023-07-13T10:46:47;30.30;99.90
25877;DHT22;13692;47.480;19.216;2023-07-13T10:49:16;30.50;99.90
25877;DHT22;13692;47.480;19.216;2023-07-13T10:51:44;30.50;99.90
25877;DHT22;13692;47.480;19.216;2023-07-13T10:54:19;30.50;99.90
25877;DHT22;13692;47.480;19.216;2023-07-13T10:56:51;30.60;99.90
25877;DHT22;13692;47.480;19.216;2023-07-13T10:59:25;30.70;99.90
25877;DHT22;13692;47.480;19.216;2023-07-13T11:04:47;30.30;99.90
25877;DHT22;13692;47.480;19.216;2023-07-13T11:07:26;30.10;99.90
25877;DHT22;13692;47.480;19.216;2023-07-13T11:09:59;29.90;99.90
25877;DHT22;13692;47.480;19.216;2023-07-13T11:15:30;29.90;99.90
25877;DHT22;13692;47.480;19.216;2023-07-13T11:18:03;29.70;99.90
25877;DHT22;13692;47.480;19.216;2023-07-13T11:20:33;29.60;99.90
25877;DHT22;13692;47.480;19.216;2023-07-13T11:25:40;29.40;99.90
25877;DHT22;13692;47.480;19.216;2023-07-13T11:33:12;29.40;99.90
25877;DHT22;13692;47.480;19.216;2023-07-13T11:36:18;29.30;99.90
25877;DHT22;13692;47.480;19.216;2023-07-13T11:41:33;29.10;99.90
25877;DHT22;13692;47.480;19.216;2023-07-13T11:44:28;28.90;99.90
25877;DHT22;13692;47.480;19.216;2023-07-13T11:46:56;28.80;99.90
25877;DHT22;13692;47.480;19.216;2023-07-13T11:49:25;28.70;99.90
25877;DHT22;13692;47.480;19.216;2023-07-13T11:51:54;28.80;99.90
25877;DHT22;13692;47.480;19.216;2023-07-13T11:54:33;29.00;99.90
25877;DHT22;13692;47.480;19.216;2023-07-13T11:59:53;29.20;99.90
25877;DHT22;13692;47.480;19.216;2023-07-13T12:02:37;29.20;99.90
25877;DHT22;13692;47.480;19.216;2023-07-13T12:05:05;29.10;99.90
25877;DHT22;13692;47.480;19.216;2023-07-13T12:07:33;29.10;99.90
25877;DHT22;13692;47.480;19.216;2023-07-13T12:10:22;29.10;99.90
25877;DHT22;13692;47.480;19.216;2023-07-13T12:12:56;29.10;99.90
25877;DHT22;13692;47.480;19.216;2023-07-13T12:15:38;29.10;99.90
25877;DHT22;13692;47.480;19.216;2023-07-13T12:18:19;29.10;99.90
25877;DHT22;13692;47.480;19.216;2023-07-13T12:20:48;29.20;99.90
25877;DHT22;13692;47.480;19.216;2023-07-13T12:23:25;29.10;99.90
25877;DHT22;13692;47.480;19.216;2023-07-13T12:25:55;29.10;99.90
25877;DHT22;13692;47.480;19.216;2023-07-13T12:28:47;29.00;99.90
25877;DHT22;13692;47.480;19.216;2023-07-13T12:31:25;28.90;99.90
25877;DHT22;13692;47.480;19.216;2023-07-13T12:33:58;28.80;99.90
25877;DHT22;13692;47.480;19.216;2023-07-13T12:36:25;28.80;99.90
25877;DHT22;13692;47.480;19.216;2023-07-13T12:38:52;28.80;99.90
25877;DHT22;13692;47.480;19.216;2023-07-13T12:41:19;28.80;99.90
25877;DHT22;13692;47.480;19.216;2023-07-13T12:43:47;28.80;99.90
25877;DHT22;13692;47.480;19.216;2023-07-13T12:46:18;28.90;99.90
25877;DHT22;13692;47.480;19.216;2023-07-13T12:48:54;29.00;99.90
25877;DHT22;13692;47.480;19.216;2023-07-13T12:51:38;29.00;99.90
25877;DHT22;13692;47.480;19.216;2023-07-13T12:54:16;28.90;99.90
25877;DHT22;13692;47.480;19.216;2023-07-13T12:56:43;29.00;99.90
25877;DHT22;13692;47.480;19.216;2023-07-13T12:59:18;29.10;99.90
25877;DHT22;13692;47.480;19.216;2023-07-13T13:01:46;29.10;99.90
25877;DHT22;13692;47.480;19.216;2023-07-13T13:04:17;29.10;99.90
25877;DHT22;13692;47.480;19.216;2023-07-13T13:06:49;29.10;99.90
25877;DHT22;13692;47.480;19.216;2023-07-13T13:09:27;29.20;99.90
25877;DHT22;13692;47.480;19.216;2023-07-13T13:11:54;29.10;99.90
25877;DHT22;13692;47.480;19.216;2023-07-13T13:14:21;29.20;99.90
25877;DHT22;13692;47.480;19.216;2023-07-13T13:16:50;29.20;99.90
25877;DHT22;13692;47.480;19.216;2023-07-13T13:19:27;29.10;99.90
25877;DHT22;13692;47.480;19.216;2023-07-13T13:21:56;29.10;99.90
25877;DHT22;13692;47.480;19.216;2023-07-13T13:24:28;29.10;99.90
25877;DHT22;13692;47.480;19.216;2023-07-13T13:26:55;29.10;99.90
25877;DHT22;13692;47.480;19.216;2023-07-13T13:29:27;29.10;99.90
25877;DHT22;13692;47.480;19.216;2023-07-13T13:31:55;29.10;99.90
25877;DHT22;13692;47.480;19.216;2023-07-13T13:34:23;29.30;99.90
25877;DHT22;13692;47.480;19.216;2023-07-13T13:36:52;29.30;99.90
25877;DHT22;13692;47.480;19.216;2023-07-13T13:39:33;29.30;99.90
25877;DHT22;13692;47.480;19.216;2023-07-13T13:42:01;29.40;99.90
25877;DHT22;13692;47.480;19.216;2023-07-13T13:44:28;29.40;99.90
25877;DHT22;13692;47.480;19.216;2023-07-13T13:46:55;29.50;99.90
25877;DHT22;13692;47.480;19.216;2023-07-13T13:49:25;29.50;99.90
25877;DHT22;13692;47.480;19.216;2023-07-13T13:51:53;29.40;99.90
25877;DHT22;13692;47.480;19.216;2023-07-13T13:54:22;29.40;99.90
25877;DHT22;13692;47.480;19.216;2023-07-13T13:56:51;29.40;99.90
25877;DHT22;13692;47.480;19.216;2023-07-13T13:59:18;29.40;99.90
25877;DHT22;13692;47.480;19.216;2023-07-13T14:01:47;29.40;99.90
25877;DHT22;13692;47.480;19.216;2023-07-13T14:04:21;29.30;99.90
25877;DHT22;13692;47.480;19.216;2023-07-13T14:06:49;29.30;99.90
25877;DHT22;13692;47.480;19.216;2023-07-13T14:09:18;29.20;99.90
25877;DHT22;13692;47.480;19.216;2023-07-13T14:11:48;29.20;99.90
25877;DHT22;13692;47.480;19.216;2023-07-13T14:14:26;29.20;99.90
25877;DHT22;13692;47.480;19.216;2023-07-13T14:16:55;29.20;99.90
25877;DHT22;13692;47.480;19.216;2023-07-13T14:19:23;29.10;99.90
25877;DHT22;13692;47.480;19.216;2023-07-13T14:21:50;29.20;99.90
25877;DHT22;13692;47.480;19.216;2023-07-13T14:24:21;29.00;99.90
25877;DHT22;13692;47.480;19.216;2023-07-13T14:26:48;29.10;99.90
25877;DHT22;13692;47.480;19.216;2023-07-13T14:29:18;29.20;99.90
25877;DHT22;13692;47.480;19.216;2023-07-13T14:31:49;29.20;99.90
25877;DHT22;13692;47.480;19.216;2023-07-13T14:34:16;29.20;99.90
25877;DHT22;13692;47.480;19.216;2023-07-13T14:36:46;29.20;99.90
25877;DHT22;13692;47.480;19.216;2023-07-13T14:39:19;29.20;99.90
25877;DHT22;13692;47.480;19.216;2023-07-13T14:41:49;29.10;99.90
25877;DHT22;13692;47.480;19.216;2023-07-13T14:44:20;29.10;99.90
25877;DHT22;13692;47.480;19.216;2023-07-13T14:46:48;29.20;99.90
25877;DHT22;13692;47.480;19.216;2023-07-13T14:54:37;29.10;99.90
25877;DHT22;13692;47.480;19.216;2023-07-13T14:57:18;29.10;99.90
25877;DHT22;13692;47.480;19.216;2023-07-13T14:59:47;29.10;99.90
25877;DHT22;13692;47.480;19.216;2023-07-13T15:02:29;29.10;99.90
25877;DHT22;13692;47.480;19.216;2023-07-13T15:04:58;29.10;99.90
25877;DHT22;13692;47.480;19.216;2023-07-13T15:07:25;29.00;99.90
25877;DHT22;13692;47.480;19.216;2023-07-13T15:09:52;29.00;99.90
25877;DHT22;13692;47.480;19.216;2023-07-13T15:12:21;28.90;99.90
25877;DHT22;13692;47.480;19.216;2023-07-13T15:14:49;28.90;99.90
25877;DHT22;13692;47.480;19.216;2023-07-13T15:17:43;28.90;99.90
25877;DHT22;13692;47.480;19.216;2023-07-13T15:20:29;28.80;99.90
25877;DHT22;13692;47.480;19.216;2023-07-13T15:23:00;28.80;99.90
25877;DHT22;13692;47.480;19.216;2023-07-13T15:25:30;28.70;99.90
25877;DHT22;13692;47.480;19.216;2023-07-13T15:27:57;28.70;99.90
25877;DHT22;13692;47.480;19.216;2023-07-13T15:30:38;28.60;99.90
25877;DHT22;13692;47.480;19.216;2023-07-13T15:35:44;28.60;99.90
25877;DHT22;13692;47.480;19.216;2023-07-13T15:38:19;28.60;99.90
25877;DHT22;13692;47.480;19.216;2023-07-13T15:40:48;28.60;99.90
25877;DHT22;13692;47.480;19.216;2023-07-13T15:43:16;28.70;99.90
25877;DHT22;13692;47.480;19.216;2023-07-13T15:45:44;28.60;99.90
25877;DHT22;13692;47.480;19.216;2023-07-13T15:48:21;28.60;99.90
25877;DHT22;13692;47.480;19.216;2023-07-13T15:50:53;28.50;99.90
25877;DHT22;13692;47.480;19.216;2023-07-13T15:53:23;28.50;99.90
25877;DHT22;13692;47.480;19.216;2023-07-13T15:55:51;28.50;99.90
25877;DHT22;13692;47.480;19.216;2023-07-13T15:58:19;28.50;99.90
25877;DHT22;13692;47.480;19.216;2023-07-13T16:00:47;28.50;99.90
25877;DHT22;13692;47.480;19.216;2023-07-13T16:03:19;28.50;99.90
25877;DHT22;13692;47.480;19.216;2023-07-13T16:05:47;28.50;99.90
25877;DHT22;13692;47.480;19.216;2023-07-13T16:08:33;28.60;99.90
25877;DHT22;13692;47.480;19.216;2023-07-13T16:11:00;28.60;99.90
25877;DHT22;13692;47.480;19.216;2023-07-13T16:13:27;28.50;99.90